sensor_id;sensor_type;location;lat;lon;timestamp;temperature;humidity
67817;DHT22;54614;47.576;7.524;2023-12-04T06:00:25;20.90;52.30
67817;DHT22;54614;47.576;7.524;2023-12-04T06:02:51;20.80;49.20
67817;DHT22;54614;47.576;7.524;2023-12-04T06:05:17;20.80;48.90
67817;DHT22;54614;47.576;7.524;2023-12-04T06:07:42;20.80;49.20
67817;DHT22;54614;47.576;7.524;2023-12-04T06:10:08;20.70;49.00
67817;DHT22;54614;47.576;7.524;2023-12-04T06:12:35;20.80;48.60
67817;DHT22;54614;47.576;7.524;2023-12-04T06:15:01;20.80;48.70
67817;DHT22;54614;47.576;7.524;2023-12-04T06:17:27;20.70;48.80
67817;DHT22;54614;47.576;7.524;2023-12-04T06:19:53;20.70;48.80
67817;DHT22;54614;47.576;7.524;2023-12-04T06:22:20;20.60;49.20
67817;DHT22;54614;47.576;7.524;2023-12-04T06:24:47;20.60;48.90
67817;DHT22;54614;47.576;7.524;2023-12-04T06:27:18;20.60;50.70
67817;DHT22;54614;47.576;7.524;2023-12-04T06:29:48;20.70;50.60
67817;DHT22;54614;47.576;7.524;2023-12-04T06:32:15;20.70;50.00
67817;DHT22;54614;47.576;7.524;2023-12-04T06:34:41;20.70;50.00
67817;DHT22;54614;47.576;7.524;2023-12-04T06:37:10;20.70;50.00
67817;DHT22;54614;47.576;7.524;2023-12-04T06:39:38;20.70;50.30
67817;DHT22;54614;47.576;7.524;2023-12-04T06:42:09;20.70;50.10
67817;DHT22;54614;47.576;7.524;2023-12-04T06:44:37;20.70;49.80
67817;DHT22;54614;47.576;7.524;2023-12-04T06:47:03;20.80;52.70
67817;DHT22;54614;47.576;7.524;2023-12-04T06:49:32;20.80;52.20
67817;DHT22;54614;47.576;7.524;2023-12-04T06:52:01;20.70;50.10
67817;DHT22;54614;47.576;7.524;2023-12-04T06:54:27;20.80;50.10
67817;DHT22;54614;47.576;7.524;2023-12-04T06:56:52;20.80;50.00
67817;DHT22;54614;47.576;7.524;2023-12-04T06:59:18;20.80;50.70
67817;DHT22;54614;47.576;7.524;2023-12-04T07:01:44;20.80;50.40
67817;DHT22;54614;47.576;7.524;2023-12-04T07:04:10;20.70;49.30
67817;DHT22;54614;47.576;7.524;2023-12-04T07:06:37;20.70;49.20
67817;DHT22;54614;47.576;7.524;2023-12-04T07:09:04;20.70;49.00
67817;DHT22;54614;47.576;7.524;2023-12-04T07:11:30;20.80;49.10
67817;DHT22;54614;47.576;7.524;2023-12-04T07:13:56;20.90;48.90
67817;DHT22;54614;47.576;7.524;2023-12-04T07:16:22;21.00;48.90
67817;DHT22;54614;47.576;7.524;2023-12-04T07:18:47;21.10;48.70
67817;DHT22;54614;47.576;7.524;2023-12-04T07:21:13;21.20;48.80
67817;DHT22;54614;47.576;7.524;2023-12-04T07:23:39;21.20;49.90
67817;DHT22;54614;47.576;7.524;2023-12-04T07:26:05;21.30;48.70
67817;DHT22;54614;47.576;7.524;2023-12-04T07:28:32;21.30;48.60
67817;DHT22;54614;47.576;7.524;2023-12-04T07:30:58;21.30;48.50
67817;DHT22;54614;47.576;7.524;2023-12-04T07:33:27;21.40;48.50
67817;DHT22;54614;47.576;7.524;2023-12-04T07:35:54;21.40;48.90
67817;DHT22;54614;47.576;7.524;2023-12-04T07:38:20;21.40;48.50
67817;DHT22;54614;47.576;7.524;2023-12-04T07:40:45;21.50;48.30
67817;DHT22;54614;47.576;7.524;2023-12-04T07:43:11;21.50;48.10
67817;DHT22;54614;47.576;7.524;2023-12-04T07:45:39;21.50;47.90
67817;DHT22;54614;47.576;7.524;2023-12-04T07:48:06;21.50;47.80
67817;DHT22;54614;47.576;7.524;2023-12-04T07:50:32;21.50;47.80
67817;DHT22;54614;47.576;7.524;2023-12-04T07:52:58;21.60;47.90
67817;DHT22;54614;47.576;7.524;2023-12-04T07:55:23;21.50;47.80
67817;DHT22;54614;47.576;7.524;2023-12-04T07:57:49;21.60;47.90
67817;DHT22;54614;47.576;7.524;2023-12-04T08:00:16;21.60;47.90
67817;DHT22;54614;47.576;7.524;2023-12-04T08:02:48;21.60;47.90
67817;DHT22;54614;47.576;7.524;2023-12-04T08:05:14;21.60;47.90
67817;DHT22;54614;47.576;7.524;2023-12-04T08:07:40;21.60;48.00
67817;DHT22;54614;47.576;7.524;2023-12-04T08:10:06;21.60;48.00
67817;DHT22;54614;47.576;7.524;2023-12-04T08:12:32;21.60;48.00
67817;DHT22;54614;47.576;7.524;2023-12-04T08:14:59;21.70;48.20
67817;DHT22;54614;47.576;7.524;2023-12-04T08:17:25;21.70;48.20
67817;DHT22;54614;47.576;7.524;2023-12-04T08:19:51;21.70;48.20
67817;DHT22;54614;47.576;7.524;2023-12-04T08:22:16;21.70;48.30
67817;DHT22;54614;47.576;7.524;2023-12-04T08:24:43;21.70;48.30
67817;DHT22;54614;47.576;7.524;2023-12-04T08:27:08;21.70;48.40
67817;DHT22;54614;47.576;7.524;2023-12-04T08:29:34;21.70;48.40
67817;DHT22;54614;47.576;7.524;2023-12-04T08:32:00;21.80;48.50
67817;DHT22;54614;47.576;7.524;2023-12-04T08:34:26;21.80;48.50
67817;DHT22;54614;47.576;7.524;2023-12-04T08:36:51;21.80;48.50
67817;DHT22;54614;47.576;7.524;2023-12-04T08:39:18;21.80;48.60
67817;DHT22;54614;47.576;7.524;2023-12-04T08:41:47;21.80;48.60
67817;DHT22;54614;47.576;7.524;2023-12-04T08:44:13;21.80;48.70
67817;DHT22;54614;47.576;7.524;2023-12-04T08:46:39;21.80;48.60
67817;DHT22;54614;47.576;7.524;2023-12-04T08:49:05;21.80;48.60
67817;DHT22;54614;47.576;7.524;2023-12-04T08:51:31;21.90;48.70
67817;DHT22;54614;47.576;7.524;2023-12-04T08:53:57;21.90;48.70
67817;DHT22;54614;47.576;7.524;2023-12-04T08:56:22;21.90;48.80
67817;DHT22;54614;47.576;7.524;2023-12-04T08:58:48;21.90;48.80
67817;DHT22;54614;47.576;7.524;2023-12-04T09:01:15;21.90;48.80
67817;DHT22;54614;47.576;7.524;2023-12-04T09:03:41;21.90;48.80
67817;DHT22;54614;47.576;7.524;2023-12-04T09:06:07;21.90;48.80
67817;DHT22;54614;47.576;7.524;2023-12-04T09:08:34;21.90;48.80
67817;DHT22;54614;47.576;7.524;2023-12-04T09:11:00;21.90;48.90
67817;DHT22;54614;47.576;7.524;2023-12-04T09:13:26;21.90;48.90
67817;DHT22;54614;47.576;7.524;2023-12-04T09:15:52;21.90;48.90
67817;DHT22;54614;47.576;7.524;2023-12-04T09:18:18;21.90;48.90
67817;DHT22;54614;47.576;7.524;2023-12-04T09:20:43;21.90;48.90
67817;DHT22;54614;47.576;7.524;2023-12-04T09:23:09;21.90;48.90
67817;DHT22;54614;47.576;7.524;2023-12-04T09:25:35;21.90;48.90
67817;DHT22;54614;47.576;7.524;2023-12-04T09:28:01;21.90;48.90
67817;DHT22;54614;47.576;7.524;2023-12-04T09:30:28;21.90;49.00
67817;DHT22;54614;47.576;7.524;2023-12-04T09:32:54;21.90;49.00
67817;DHT22;54614;47.576;7.524;2023-12-04T09:35:20;21.90;49.00
67817;DHT22;54614;47.576;7.524;2023-12-04T09:37:45;21.90;49.00
67817;DHT22;54614;47.576;7.524;2023-12-04T09:40:13;21.90;49.10
67817;DHT22;54614;47.576;7.524;2023-12-04T09:42:39;21.90;49.30
67817;DHT22;54614;47.576;7.524;2023-12-04T09:45:07;21.90;49.40
67817;DHT22;54614;47.576;7.524;2023-12-04T09:47:34;21.90;49.50
67817;DHT22;54614;47.576;7.524;2023-12-04T09:50:00;21.90;49.60
67817;DHT22;54614;47.576;7.524;2023-12-04T09:52:27;21.90;49.70
67817;DHT22;54614;47.576;7.524;2023-12-04T09:54:53;21.90;49.80
67817;DHT22;54614;47.576;7.524;2023-12-04T09:57:19;21.90;49.90
67817;DHT22;54614;47.576;7.524;2023-12-04T09:59:48;21.90;49.80
67817;DHT22;54614;47.576;7.524;2023-12-04T10:02:15;21.90;49.70
67817;DHT22;54614;47.576;7.524;2023-12-04T10:04:42;21.90;49.60
67817;DHT22;54614;47.576;7.524;2023-12-04T10:07:08;21.90;49.80
67817;DHT22;54614;47.576;7.524;2023-12-04T10:09:34;21.90;49.90
67817;DHT22;54614;47.576;7.524;2023-12-04T10:12:00;21.90;50.00
67817;DHT22;54614;47.576;7.524;2023-12-04T10:14:25;21.90;50.10
67817;DHT22;54614;47.576;7.524;2023-12-04T10:16:52;21.90;50.10
67817;DHT22;54614;47.576;7.524;2023-12-04T10:19:25;21.80;50.20
67817;DHT22;54614;47.576;7.524;2023-12-04T10:21:55;21.90;50.20
67817;DHT22;54614;47.576;7.524;2023-12-04T10:24:29;21.90;50.20
67817;DHT22;54614;47.576;7.524;2023-12-04T10:27:09;21.90;50.10
67817;DHT22;54614;47.576;7.524;2023-12-04T10:29:48;21.90;50.00
67817;DHT22;54614;47.576;7.524;2023-12-04T10:32:21;21.90;50.10
67817;DHT22;54614;47.576;7.524;2023-12-04T10:34:47;21.90;50.20
67817;DHT22;54614;47.576;7.524;2023-12-04T10:37:14;21.90;50.50
67817;DHT22;54614;47.576;7.524;2023-12-04T10:39:51;21.90;50.30
67817;DHT22;54614;47.576;7.524;2023-12-04T10:42:24;21.90;50.30
67817;DHT22;54614;47.576;7.524;2023-12-04T10:44:52;21.90;50.40
67817;DHT22;54614;47.576;7.524;2023-12-04T10:47:21;21.90;50.40
67817;DHT22;54614;47.576;7.524;2023-12-04T10:49:51;21.90;50.40
67817;DHT22;54614;47.576;7.524;2023-12-04T10:52:18;21.90;50.50
67817;DHT22;54614;47.576;7.524;2023-12-04T10:54:46;21.90;50.30
67817;DHT22;54614;47.576;7.524;2023-12-04T10:57:13;21.90;50.30
67817;DHT22;54614;47.576;7.524;2023-12-04T10:59:56;21.90;50.30
67817;DHT22;54614;47.576;7.524;2023-12-04T11:02:26;21.80;50.40
67817;DHT22;54614;47.576;7.524;2023-12-04T11:04:58;21.90;50.50
67817;DHT22;54614;47.576;7.524;2023-12-04T11:07:46;21.80;50.50
67817;DHT22;54614;47.576;7.524;2023-12-04T11:10:15;21.90;50.60
67817;DHT22;54614;47.576;7.524;2023-12-04T11:12:45;21.90;50.60
67817;DHT22;54614;47.576;7.524;2023-12-04T11:15:16;21.90;50.70
67817;DHT22;54614;47.576;7.524;2023-12-04T11:17:49;21.90;50.70
67817;DHT22;54614;47.576;7.524;2023-12-04T11:20:20;21.90;50.60
67817;DHT22;54614;47.576;7.524;2023-12-04T11:22:49;21.70;50.40
67817;DHT22;54614;47.576;7.524;2023-12-04T11:25:17;21.80;50.50
67817;DHT22;54614;47.576;7.524;2023-12-04T11:27:43;21.80;50.50
67817;DHT22;54614;47.576;7.524;2023-12-04T11:30:10;21.80;50.60
67817;DHT22;54614;47.576;7.524;2023-12-04T11:32:44;21.80;50.60
67817;DHT22;54614;47.576;7.524;2023-12-04T11:35:18;21.80;50.70
67817;DHT22;54614;47.576;7.524;2023-12-04T11:37:47;21.80;50.80
67817;DHT22;54614;47.576;7.524;2023-12-04T11:40:15;21.80;50.80
67817;DHT22;54614;47.576;7.524;2023-12-04T11:42:42;21.80;50.80
67817;DHT22;54614;47.576;7.524;2023-12-04T11:45:08;21.80;50.80
67817;DHT22;54614;47.576;7.524;2023-12-04T11:48:03;21.80;50.70
67817;DHT22;54614;47.576;7.524;2023-12-04T11:50:29;21.80;50.60
67817;DHT22;54614;47.576;7.524;2023-12-04T11:52:55;21.80;50.70
67817;DHT22;54614;47.576;7.524;2023-12-04T11:55:22;21.80;50.80
67817;DHT22;54614;47.576;7.524;2023-12-04T11:57:51;21.80;51.60
67817;DHT22;54614;47.576;7.524;2023-12-04T12:00:23;21.70;53.10
67817;DHT22;54614;47.576;7.524;2023-12-04T12:05:21;21.70;52.50
67817;DHT22;54614;47.576;7.524;2023-12-04T12:07:48;21.70;52.00
67817;DHT22;54614;47.576;7.524;2023-12-04T12:10:15;21.70;52.10
67817;DHT22;54614;47.576;7.524;2023-12-04T12:12:45;21.70;51.70
67817;DHT22;54614;47.576;7.524;2023-12-04T12:15:12;21.70;51.50
67817;DHT22;54614;47.576;7.524;2023-12-04T12:17:40;21.80;51.50
67817;DHT22;54614;47.576;7.524;2023-12-04T12:20:11;21.80;51.30
67817;DHT22;54614;47.576;7.524;2023-12-04T12:22:38;21.80;51.20
67817;DHT22;54614;47.576;7.524;2023-12-04T12:25:10;21.80;51.20
67817;DHT22;54614;47.576;7.524;2023-12-04T12:27:37;21.80;51.20
67817;DHT22;54614;47.576;7.524;2023-12-04T12:30:04;21.80;51.30
67817;DHT22;54614;47.576;7.524;2023-12-04T12:32:32;21.80;51.10
67817;DHT22;54614;47.576;7.524;2023-12-04T12:34:58;21.90;51.10
67817;DHT22;54614;47.576;7.524;2023-12-04T12:37:24;21.90;51.10
67817;DHT22;54614;47.576;7.524;2023-12-04T12:39:51;21.90;51.10
67817;DHT22;54614;47.576;7.524;2023-12-04T12:42:25;21.90;51.20
67817;DHT22;54614;47.576;7.524;2023-12-04T12:44:52;21.90;51.00
67817;DHT22;54614;47.576;7.524;2023-12-04T12:47:19;21.90;51.00
67817;DHT22;54614;47.576;7.524;2023-12-04T12:49:45;22.00;51.00
67817;DHT22;54614;47.576;7.524;2023-12-04T12:52:12;22.00;50.70
67817;DHT22;54614;47.576;7.524;2023-12-04T12:54:38;22.00;50.50
67817;DHT22;54614;47.576;7.524;2023-12-04T12:57:06;22.00;50.40
67817;DHT22;54614;47.576;7.524;2023-12-04T12:59:33;22.00;50.00
67817;DHT22;54614;47.576;7.524;2023-12-04T13:01:59;22.00;49.80
67817;DHT22;54614;47.576;7.524;2023-12-04T13:04:26;22.10;50.20
67817;DHT22;54614;47.576;7.524;2023-12-04T13:06:59;22.10;50.20
67817;DHT22;54614;47.576;7.524;2023-12-04T13:09:24;22.00;49.80
67817;DHT22;54614;47.576;7.524;2023-12-04T13:11:50;22.10;49.70
67817;DHT22;54614;47.576;7.524;2023-12-04T13:14:17;22.10;49.70
67817;DHT22;54614;47.576;7.524;2023-12-04T13:16:43;22.10;49.70
67817;DHT22;54614;47.576;7.524;2023-12-04T13:19:09;22.10;49.80
67817;DHT22;54614;47.576;7.524;2023-12-04T13:21:34;22.10;49.70
67817;DHT22;54614;47.576;7.524;2023-12-04T13:24:00;22.10;49.80
67817;DHT22;54614;47.576;7.524;2023-12-04T13:26:26;22.10;50.00
67817;DHT22;54614;47.576;7.524;2023-12-04T13:28:52;22.10;50.00
67817;DHT22;54614;47.576;7.524;2023-12-04T13:31:18;22.10;50.20
67817;DHT22;54614;47.576;7.524;2023-12-04T13:33:46;22.10;50.30
67817;DHT22;54614;47.576;7.524;2023-12-04T13:36:12;22.20;50.50
67817;DHT22;54614;47.576;7.524;2023-12-04T13:38:38;22.20;50.60
67817;DHT22;54614;47.576;7.524;2023-12-04T13:41:04;22.20;50.70
67817;DHT22;54614;47.576;7.524;2023-12-04T13:43:59;22.20;50.80
67817;DHT22;54614;47.576;7.524;2023-12-04T13:46:26;22.20;50.90
67817;DHT22;54614;47.576;7.524;2023-12-04T13:48:56;22.10;50.90
67817;DHT22;54614;47.576;7.524;2023-12-04T13:51:22;22.20;51.60
67817;DHT22;54614;47.576;7.524;2023-12-04T13:53:48;22.20;50.90
67817;DHT22;54614;47.576;7.524;2023-12-04T13:56:16;22.20;50.60
67817;DHT22;54614;47.576;7.524;2023-12-04T13:59:07;22.20;50.70
67817;DHT22;54614;47.576;7.524;2023-12-04T14:01:33;22.20;50.70
67817;DHT22;54614;47.576;7.524;2023-12-04T14:03:59;22.10;50.80
67817;DHT22;54614;47.576;7.524;2023-12-04T14:06:28;22.10;51.60
67817;DHT22;54614;47.576;7.524;2023-12-04T14:08:56;22.10;51.00
67817;DHT22;54614;47.576;7.524;2023-12-04T14:11:23;22.10;51.10
67817;DHT22;54614;47.576;7.524;2023-12-04T14:13:49;22.10;51.10
67817;DHT22;54614;47.576;7.524;2023-12-04T14:16:15;22.10;51.00
67817;DHT22;54614;47.576;7.524;2023-12-04T14:18:43;22.10;51.10
67817;DHT22;54614;47.576;7.524;2023-12-04T14:21:09;22.10;50.90
67817;DHT22;54614;47.576;7.524;2023-12-04T14:23:35;22.10;50.90
67817;DHT22;54614;47.576;7.524;2023-12-04T14:26:01;22.10;51.10
67817;DHT22;54614;47.576;7.524;2023-12-04T14:28:28;22.10;51.10
67817;DHT22;54614;47.576;7.524;2023-12-04T14:30:54;22.10;51.00
67817;DHT22;54614;47.576;7.524;2023-12-04T14:33:20;22.10;51.10
67817;DHT22;54614;47.576;7.524;2023-12-04T14:35:46;22.10;51.10
67817;DHT22;54614;47.576;7.524;2023-12-04T14:38:13;22.10;51.00
67817;DHT22;54614;47.576;7.524;2023-12-04T14:40:40;22.10;50.90
67817;DHT22;54614;47.576;7.524;2023-12-04T14:43:06;22.10;50.80
67817;DHT22;54614;47.576;7.524;2023-12-04T14:45:35;22.00;50.80
67817;DHT22;54614;47.576;7.524;2023-12-04T14:48:02;22.00;50.70
67817;DHT22;54614;47.576;7.524;2023-12-04T14:50:32;22.10;50.80
67817;DHT22;54614;47.576;7.524;2023-12-04T14:52:59;22.00;50.80
67817;DHT22;54614;47.576;7.524;2023-12-04T14:55:39;22.10;50.90
67817;DHT22;54614;47.576;7.524;2023-12-04T14:58:23;22.00;50.90
67817;DHT22;54614;47.576;7.524;2023-12-04T15:01:07;22.10;50.90
67817;DHT22;54614;47.576;7.524;2023-12-04T15:03:51;22.10;50.80
67817;DHT22;54614;47.576;7.524;2023-12-04T15:06:35;22.10;50.70
67817;DHT22;54614;47.576;7.524;2023-12-04T15:09:27;22.10;50.70
67817;DHT22;54614;47.576;7.524;2023-12-04T15:12:02;22.10;50.80
67817;DHT22;54614;47.576;7.524;2023-12-04T15:14:36;22.10;50.70
67817;DHT22;54614;47.576;7.524;2023-12-04T15:17:14;22.10;50.80
67817;DHT22;54614;47.576;7.524;2023-12-04T15:19:55;22.10;50.80
67817;DHT22;54614;47.576;7.524;2023-12-04T15:22:24;22.10;50.80
67817;DHT22;54614;47.576;7.524;2023-12-04T15:24:50;22.10;50.70
67817;DHT22;54614;47.576;7.524;2023-12-04T15:27:16;22.10;50.80
67817;DHT22;54614;47.576;7.524;2023-12-04T15:29:43;22.10;50.70
67817;DHT22;54614;47.576;7.524;2023-12-04T15:32:09;22.10;50.70
67817;DHT22;54614;47.576;7.524;2023-12-04T15:34:35;22.00;50.70
67817;DHT22;54614;47.576;7.524;2023-12-04T15:37:00;22.00;50.70
67817;DHT22;54614;47.576;7.524;2023-12-04T15:39:26;22.10;50.60
67817;DHT22;54614;47.576;7.524;2023-12-04T15:41:52;22.00;50.90
67817;DHT22;54614;47.576;7.524;2023-12-04T15:44:18;22.00;50.70
67817;DHT22;54614;47.576;7.524;2023-12-04T15:46:44;22.00;50.50
67817;DHT22;54614;47.576;7.524;2023-12-04T15:49:10;22.10;51.20
67817;DHT22;54614;47.576;7.524;2023-12-04T15:51:36;22.10;50.50
67817;DHT22;54614;47.576;7.524;2023-12-04T15:54:03;22.00;50.40
67817;DHT22;54614;47.576;7.524;2023-12-04T15:56:29;22.00;50.30
67817;DHT22;54614;47.576;7.524;2023-12-04T15:58:55;22.00;50.30
67817;DHT22;54614;47.576;7.524;2023-12-04T16:01:21;22.00;50.40
67817;DHT22;54614;47.576;7.524;2023-12-04T16:03:46;22.00;50.40
67817;DHT22;54614;47.576;7.524;2023-12-04T16:06:12;22.00;50.40
67817;DHT22;54614;47.576;7.524;2023-12-04T16:08:38;22.00;50.30
67817;DHT22;54614;47.576;7.524;2023-12-04T16:11:04;21.90;50.30
67817;DHT22;54614;47.576;7.524;2023-12-04T16:13:30;21.90;50.20
67817;DHT22;54614;47.576;7.524;2023-12-04T16:15:55;22.00;50.30
67817;DHT22;54614;47.576;7.524;2023-12-04T16:18:21;22.00;50.20
67817;DHT22;54614;47.576;7.524;2023-12-04T16:20:47;21.90;50.20
67817;DHT22;54614;47.576;7.524;2023-12-04T16:23:13;21.90;50.10
67817;DHT22;54614;47.576;7.524;2023-12-04T16:25:40;21.90;50.20
67817;DHT22;54614;47.576;7.524;2023-12-04T16:28:05;21.90;50.10
67817;DHT22;54614;47.576;7.524;2023-12-04T16:30:36;21.90;50.30
67817;DHT22;54614;47.576;7.524;2023-12-04T16:33:03;21.90;50.20
67817;DHT22;54614;47.576;7.524;2023-12-04T16:35:29;21.90;50.20
67817;DHT22;54614;47.576;7.524;2023-12-04T16:37:55;21.90;50.20
67817;DHT22;54614;47.576;7.524;2023-12-04T16:40:21;21.90;50.30
67817;DHT22;54614;47.576;7.524;2023-12-04T16:42:48;21.90;50.40
67817;DHT22;54614;47.576;7.524;2023-12-04T16:45:14;21.80;50.30
67817;DHT22;54614;47.576;7.524;2023-12-04T16:47:40;21.80;50.20
67817;DHT22;54614;47.576;7.524;2023-12-04T16:50:06;21.80;50.40
67817;DHT22;54614;47.576;7.524;2023-12-04T16:52:32;21.90;50.40
67817;DHT22;54614;47.576;7.524;2023-12-04T16:54:57;21.80;50.30
67817;DHT22;54614;47.576;7.524;2023-12-04T16:57:23;21.80;50.30
67817;DHT22;54614;47.576;7.524;2023-12-04T16:59:49;21.80;50.30
67817;DHT22;54614;47.576;7.524;2023-12-04T17:02:16;21.80;50.30
67817;DHT22;54614;47.576;7.524;2023-12-04T17:04:42;21.80;50.30
67817;DHT22;54614;47.576;7.524;2023-12-04T17:07:08;21.80;50.20
67817;DHT22;54614;47.576;7.524;2023-12-04T17:09:33;21.70;50.10
67817;DHT22;54614;47.576;7.524;2023-12-04T17:11:59;21.70;50.20
67817;DHT22;54614;47.576;7.524;2023-12-04T17:14:25;21.70;50.10
67817;DHT22;54614;47.576;7.524;2023-12-04T17:16:51;21.70;50.30
67817;DHT22;54614;47.576;7.524;2023-12-04T17:19:16;21.70;50.30
67817;DHT22;54614;47.576;7.524;2023-12-04T17:21:42;21.70;50.40
67817;DHT22;54614;47.576;7.524;2023-12-04T17:24:08;21.70;50.40
67817;DHT22;54614;47.576;7.524;2023-12-04T17:26:34;21.80;50.70
67817;DHT22;54614;47.576;7.524;2023-12-04T17:28:59;21.60;50.60
67817;DHT22;54614;47.576;7.524;2023-12-04T17:31:25;21.70;50.70
67817;DHT22;54614;47.576;7.524;2023-12-04T17:33:52;21.70;50.80
67817;DHT22;54614;47.576;7.524;2023-12-04T17:36:18;21.70;50.70
67817;DHT22;54614;47.576;7.524;2023-12-04T17:38:44;21.70;50.60
67817;DHT22;54614;47.576;7.524;2023-12-04T17:41:10;21.70;51.40
67817;DHT22;54614;47.576;7.524;2023-12-04T17:43:37;21.60;50.70
67817;DHT22;54614;47.576;7.524;2023-12-04T17:46:03;21.60;50.90
67817;DHT22;54614;47.576;7.524;2023-12-04T17:48:29;21.60;50.90
67817;DHT22;54614;47.576;7.524;2023-12-04T17:50:54;21.60;50.60
67817;DHT22;54614;47.576;7.524;2023-12-04T17:53:20;21.60;51.20
67817;DHT22;54614;47.576;7.524;2023-12-04T17:55:46;21.60;51.20
67817;DHT22;54614;47.576;7.524;2023-12-04T17:58:12;21.60;51.10
67817;DHT22;54614;47.576;7.524;2023-12-04T18:00:43;21.60;51.10
67817;DHT22;54614;47.576;7.524;2023-12-04T18:03:09;21.60;51.10
67817;DHT22;54614;47.576;7.524;2023-12-04T18:05:35;21.50;50.80
67817;DHT22;54614;47.576;7.524;2023-12-04T18:08:01;21.60;51.10
67817;DHT22;54614;47.576;7.524;2023-12-04T18:10:29;21.50;51.20
67817;DHT22;54614;47.576;7.524;2023-12-04T18:12:55;21.60;51.20
67817;DHT22;54614;47.576;7.524;2023-12-04T18:15:20;21.60;51.30
67817;DHT22;54614;47.576;7.524;2023-12-04T18:17:46;21.60;51.40
67817;DHT22;54614;47.576;7.524;2023-12-04T18:20:13;21.60;51.20
67817;DHT22;54614;47.576;7.524;2023-12-04T18:22:41;21.60;51.20
67817;DHT22;54614;47.576;7.524;2023-12-04T18:25:09;21.60;50.70
67817;DHT22;54614;47.576;7.524;2023-12-04T18:27:36;21.60;51.40
67817;DHT22;54614;47.576;7.524;2023-12-04T18:30:05;21.70;51.20
67817;DHT22;54614;47.576;7.524;2023-12-04T18:32:33;21.70;50.90
67817;DHT22;54614;47.576;7.524;2023-12-04T18:34:59;21.70;51.50
67817;DHT22;54614;47.576;7.524;2023-12-04T18:37:54;21.70;52.00
67817;DHT22;54614;47.576;7.524;2023-12-04T18:40:24;21.50;51.90
67817;DHT22;54614;47.576;7.524;2023-12-04T18:42:50;21.80;51.90
67817;DHT22;54614;47.576;7.524;2023-12-04T18:45:16;21.80;51.90
67817;DHT22;54614;47.576;7.524;2023-12-04T18:47:43;21.80;51.90
67817;DHT22;54614;47.576;7.524;2023-12-04T18:50:11;21.90;52.00
67817;DHT22;54614;47.576;7.524;2023-12-04T18:52:37;21.90;51.90
67817;DHT22;54614;47.576;7.524;2023-12-04T18:55:04;21.90;51.90
67817;DHT22;54614;47.576;7.524;2023-12-04T18:57:30;22.00;51.90
67817;DHT22;54614;47.576;7.524;2023-12-04T18:59:56;22.10;51.90
67817;DHT22;54614;47.576;7.524;2023-12-04T19:02:22;22.00;51.90
67817;DHT22;54614;47.576;7.524;2023-12-04T19:04:47;22.00;51.90
67817;DHT22;54614;47.576;7.524;2023-12-04T19:07:13;22.00;51.80
67817;DHT22;54614;47.576;7.524;2023-12-04T19:09:39;22.00;51.90
67817;DHT22;54614;47.576;7.524;2023-12-04T19:12:05;22.00;52.00
67817;DHT22;54614;47.576;7.524;2023-12-04T19:14:31;22.00;52.60
67817;DHT22;54614;47.576;7.524;2023-12-04T19:16:57;22.10;52.00
67817;DHT22;54614;47.576;7.524;2023-12-04T19:19:23;22.00;51.80
67817;DHT22;54614;47.576;7.524;2023-12-04T19:21:49;22.10;51.70
67817;DHT22;54614;47.576;7.524;2023-12-04T19:24:15;22.10;51.60
67817;DHT22;54614;47.576;7.524;2023-12-04T19:26:42;22.10;51.60
67817;DHT22;54614;47.576;7.524;2023-12-04T19:29:07;22.00;51.60
67817;DHT22;54614;47.576;7.524;2023-12-04T19:31:33;22.10;51.60
67817;DHT22;54614;47.576;7.524;2023-12-04T19:33:59;22.10;51.50
67817;DHT22;54614;47.576;7.524;2023-12-04T19:36:25;22.10;51.50
67817;DHT22;54614;47.576;7.524;2023-12-04T19:38:50;22.10;51.50
67817;DHT22;54614;47.576;7.524;2023-12-04T19:41:16;22.10;51.50
67817;DHT22;54614;47.576;7.524;2023-12-04T19:43:42;22.10;51.50
67817;DHT22;54614;47.576;7.524;2023-12-04T19:46:08;22.10;51.50
67817;DHT22;54614;47.576;7.524;2023-12-04T19:48:34;22.20;52.60
67817;DHT22;54614;47.576;7.524;2023-12-04T19:51:03;22.20;52.80
67817;DHT22;54614;47.576;7.524;2023-12-04T19:53:29;22.20;53.00
67817;DHT22;54614;47.576;7.524;2023-12-04T19:55:55;22.20;53.00
67817;DHT22;54614;47.576;7.524;2023-12-04T19:58:21;22.30;53.30
67817;DHT22;54614;47.576;7.524;2023-12-04T20:00:47;22.30;53.30
67817;DHT22;54614;47.576;7.524;2023-12-04T20:03:13;22.40;53.30
67817;DHT22;54614;47.576;7.524;2023-12-04T20:05:38;22.30;53.30
67817;DHT22;54614;47.576;7.524;2023-12-04T20:08:04;22.30;53.30
67817;DHT22;54614;47.576;7.524;2023-12-04T20:10:30;22.30;53.40
67817;DHT22;54614;47.576;7.524;2023-12-04T20:12:56;22.40;53.50
67817;DHT22;54614;47.576;7.524;2023-12-04T20:15:21;22.20;53.90
67817;DHT22;54614;47.576;7.524;2023-12-04T20:17:47;22.20;53.80
67817;DHT22;54614;47.576;7.524;2023-12-04T20:20:13;22.30;53.80
67817;DHT22;54614;47.576;7.524;2023-12-04T20:22:39;22.30;53.80
67817;DHT22;54614;47.576;7.524;2023-12-04T20:25:05;22.30;53.90
67817;DHT22;54614;47.576;7.524;2023-12-04T20:27:32;22.30;54.10
67817;DHT22;54614;47.576;7.524;2023-12-04T20:29:57;22.30;54.20
67817;DHT22;54614;47.576;7.524;2023-12-04T20:32:23;22.20;54.30
67817;DHT22;54614;47.576;7.524;2023-12-04T20:34:49;22.30;54.60
67817;DHT22;54614;47.576;7.524;2023-12-04T20:37:15;22.20;54.90
67817;DHT22;54614;47.576;7.524;2023-12-04T20:39:40;22.20;55.70
67817;DHT22;54614;47.576;7.524;2023-12-04T20:42:06;22.20;57.70
67817;DHT22;54614;47.576;7.524;2023-12-04T20:44:32;22.30;61.40
67817;DHT22;54614;47.576;7.524;2023-12-04T20:46:59;22.30;60.60
67817;DHT22;54614;47.576;7.524;2023-12-04T20:49:25;22.30;58.50
67817;DHT22;54614;47.576;7.524;2023-12-04T20:51:51;22.20;57.70
67817;DHT22;54614;47.576;7.524;2023-12-04T20:54:17;22.20;58.70
67817;DHT22;54614;47.576;7.524;2023-12-04T20:56:43;22.20;60.50
67817;DHT22;54614;47.576;7.524;2023-12-04T20:59:09;22.20;57.10
67817;DHT22;54614;47.576;7.524;2023-12-04T21:01:36;22.20;57.10
67817;DHT22;54614;47.576;7.524;2023-12-04T21:04:02;22.20;57.20
67817;DHT22;54614;47.576;7.524;2023-12-04T21:06:28;22.20;57.40
67817;DHT22;54614;47.576;7.524;2023-12-04T21:08:53;22.10;57.40
67817;DHT22;54614;47.576;7.524;2023-12-04T21:11:19;22.10;57.40
67817;DHT22;54614;47.576;7.524;2023-12-04T21:13:45;22.10;57.50
67817;DHT22;54614;47.576;7.524;2023-12-04T21:16:10;22.10;57.70
67817;DHT22;54614;47.576;7.524;2023-12-04T21:18:36;22.10;57.80
67817;DHT22;54614;47.576;7.524;2023-12-04T21:21:02;22.10;57.80
67817;DHT22;54614;47.576;7.524;2023-12-04T21:23:29;22.10;58.00
67817;DHT22;54614;47.576;7.524;2023-12-04T21:25:54;22.10;58.10
67817;DHT22;54614;47.576;7.524;2023-12-04T21:28:21;22.10;59.10
67817;DHT22;54614;47.576;7.524;2023-12-04T21:30:48;22.10;61.10
67817;DHT22;54614;47.576;7.524;2023-12-04T21:33:14;22.10;61.30